createdAt,value
2023-01-17T00:02:19.220Z,0.50
2023-01-17T00:05:05.169Z,0.50
2023-01-17T00:07:51.239Z,0.47
2023-01-17T00:10:23.649Z,0.40
2023-01-17T00:12:56.470Z,0.43
2023-01-17T00:15:24.584Z,0.60
2023-01-17T00:17:52.024Z,0.50
2023-01-17T00:20:40.857Z,0.57
2023-01-17T00:23:31.048Z,0.50
2023-01-17T00:26:04.149Z,0.57
2023-01-17T00:28:37.195Z,0.50
2023-01-17T00:31:05.599Z,0.40
2023-01-17T00:33:32.715Z,0.80
2023-01-17T00:36:00.931Z,0.63
2023-01-17T00:38:31.293Z,0.43
2023-01-17T00:41:06.319Z,0.50
2023-01-17T00:43:52.195Z,0.50
2023-01-17T00:46:38.215Z,0.47
2023-01-17T00:49:24.484Z,0.70
2023-01-17T00:52:10.495Z,0.52
2023-01-17T00:54:55.781Z,0.50
2023-01-17T00:57:41.816Z,0.80
2023-01-17T01:00:28.209Z,0.50
2023-01-17T01:03:13.585Z,0.60
2023-01-17T01:05:59.180Z,0.52
2023-01-17T01:08:47.968Z,0.50
2023-01-17T01:11:39.848Z,0.50
2023-01-17T01:14:27.351Z,0.40
2023-01-17T01:17:12.776Z,0.50
2023-01-17T01:19:58.214Z,0.52
2023-01-17T01:22:43.929Z,0.80
2023-01-17T01:25:29.325Z,0.50
2023-01-17T01:28:26.109Z,0.40
2023-01-17T01:31:11.464Z,0.50
2023-01-17T01:33:38.511Z,0.40
2023-01-17T01:36:08.148Z,0.40
2023-01-17T01:38:35.118Z,0.50
2023-01-17T01:41:02.665Z,0.50
2023-01-17T01:43:41.898Z,0.40
2023-01-17T01:46:31.032Z,0.30
2023-01-17T01:49:19.144Z,0.50
2023-01-17T01:51:56.171Z,0.50
2023-01-17T01:54:28.428Z,0.50
2023-01-17T01:56:59.896Z,0.40
2023-01-17T01:59:27.426Z,0.60
2023-01-17T02:01:58.257Z,0.50
2023-01-17T02:04:27.870Z,0.60
2023-01-17T02:07:18.931Z,0.40
2023-01-17T02:09:46.107Z,0.50
2023-01-17T02:12:13.735Z,0.68
2023-01-17T02:14:40.720Z,0.43
2023-01-17T02:17:19.991Z,0.30
2023-01-17T02:20:05.701Z,0.40
2023-01-17T02:22:54.625Z,0.60
2023-01-17T02:26:02.960Z,0.50
2023-01-17T02:29:21.189Z,0.40
2023-01-17T02:31:57.413Z,0.30
2023-01-17T02:34:43.489Z,0.50
2023-01-17T02:37:16.606Z,0.40
2023-01-17T02:39:53.576Z,0.40
2023-01-17T02:42:26.694Z,0.35
2023-01-17T02:44:53.634Z,0.43
2023-01-17T02:47:29.087Z,0.40
2023-01-17T02:50:13.793Z,0.38
2023-01-17T02:52:55.231Z,0.40
2023-01-17T02:55:44.969Z,0.47
2023-01-17T02:58:34.625Z,0.40
2023-01-17T03:01:16.491Z,0.40
2023-01-17T03:04:00.252Z,0.47
2023-01-17T03:06:45.276Z,0.55
2023-01-17T03:09:14.696Z,0.47
2023-01-17T03:11:43.081Z,0.47
2023-01-17T03:14:10.195Z,0.40
2023-01-17T03:16:37.410Z,0.30
2023-01-17T03:19:04.534Z,0.50
2023-01-17T03:21:31.469Z,0.38
2023-01-17T03:23:58.435Z,0.50
2023-01-17T03:26:25.353Z,0.40
2023-01-17T03:28:52.251Z,0.82
2023-01-17T03:31:22.470Z,0.68
2023-01-17T03:33:49.429Z,0.50
2023-01-17T03:36:16.488Z,0.43
2023-01-17T03:38:43.535Z,0.30
2023-01-17T03:41:10.532Z,0.47
2023-01-17T03:43:37.468Z,0.57
2023-01-17T03:46:06.984Z,0.40
2023-01-17T03:48:34.456Z,0.40
2023-01-17T03:51:01.408Z,0.20
2023-01-17T03:53:28.393Z,0.30
2023-01-17T03:55:55.369Z,0.30
2023-01-17T03:58:22.363Z,0.45
2023-01-17T04:00:49.355Z,0.50
2023-01-17T04:03:16.302Z,0.40
2023-01-17T04:05:43.289Z,0.40
2023-01-17T04:08:10.210Z,0.40
2023-01-17T04:10:37.130Z,0.43
2023-01-17T04:13:04.071Z,0.38
2023-01-17T04:15:31.116Z,0.38
2023-01-17T04:17:58.370Z,0.50
2023-01-17T04:20:37.156Z,0.32
2023-01-17T04:23:04.855Z,0.40
2023-01-17T04:25:32.154Z,0.43
2023-01-17T04:28:01.039Z,0.40
2023-01-17T04:30:28.906Z,0.30
2023-01-17T04:32:56.020Z,0.50
2023-01-17T04:35:23.596Z,0.30
2023-01-17T04:37:51.037Z,0.50
2023-01-17T04:40:18.139Z,0.40
2023-01-17T04:42:45.443Z,0.40
2023-01-17T04:45:12.905Z,0.30
2023-01-17T04:47:40.160Z,0.30
2023-01-17T04:50:08.153Z,0.30
2023-01-17T04:52:35.122Z,0.30
2023-01-17T04:55:02.258Z,0.40
2023-01-17T04:57:29.420Z,0.47
2023-01-17T04:59:56.453Z,0.30
2023-01-17T05:02:23.455Z,0.30
2023-01-17T05:04:50.434Z,0.40
2023-01-17T05:07:17.356Z,0.35
2023-01-17T05:09:44.289Z,0.30
2023-01-17T05:12:11.239Z,0.47
2023-01-17T05:14:38.171Z,0.32
2023-01-17T05:17:05.095Z,0.40
2023-01-17T05:19:32.057Z,0.40
2023-01-17T05:22:04.151Z,0.40
2023-01-17T05:24:32.315Z,0.57
2023-01-17T05:27:03.080Z,0.43
2023-01-17T05:29:30.864Z,0.40
2023-01-17T05:31:58.055Z,0.30
2023-01-17T05:34:25.070Z,0.40
2023-01-17T05:36:52.057Z,0.40
2023-01-17T05:39:19.082Z,0.57
2023-01-17T05:41:46.377Z,0.40
2023-01-17T05:44:13.387Z,0.32
2023-01-17T05:46:40.410Z,0.40
2023-01-17T05:49:07.469Z,0.50
2023-01-17T05:51:37.808Z,0.40
2023-01-17T05:54:05.775Z,0.30
2023-01-17T05:56:33.592Z,0.43
2023-01-17T05:59:00.552Z,0.32
2023-01-17T06:01:27.667Z,0.35
2023-01-17T06:03:54.675Z,0.30
2023-01-17T06:06:21.830Z,0.40
2023-01-17T06:08:48.794Z,0.40
2023-01-17T06:11:15.930Z,0.40
2023-01-17T06:13:42.869Z,0.38
2023-01-17T06:16:09.852Z,0.60
2023-01-17T06:18:36.864Z,0.40
2023-01-17T06:21:03.857Z,0.30
2023-01-17T06:23:30.804Z,0.50
2023-01-17T06:25:57.759Z,0.30
2023-01-17T06:28:24.748Z,0.60
2023-01-17T06:30:51.751Z,0.38
2023-01-17T06:33:18.767Z,0.30
2023-01-17T06:35:50.451Z,0.50
2023-01-17T06:38:17.703Z,0.38
2023-01-17T06:40:44.680Z,0.40
2023-01-17T06:43:11.605Z,0.40
2023-01-17T06:45:38.547Z,0.40
2023-01-17T06:48:06.171Z,0.30
2023-01-17T06:50:34.203Z,0.40
2023-01-17T06:53:04.469Z,0.30
2023-01-17T06:55:36.503Z,0.30
2023-01-17T06:58:03.960Z,0.40
2023-01-17T07:00:35.176Z,0.40
2023-01-17T07:03:02.369Z,0.38
2023-01-17T07:05:29.352Z,0.20
2023-01-17T07:07:57.581Z,0.40
2023-01-17T07:10:24.586Z,0.30
2023-01-17T07:12:51.626Z,0.28
2023-01-17T07:15:18.849Z,0.30
2023-01-17T07:17:45.832Z,0.20
2023-01-17T07:20:13.625Z,0.30
2023-01-17T07:22:44.438Z,0.30
2023-01-17T07:25:11.854Z,0.20
2023-01-17T07:27:38.812Z,0.20
2023-01-17T07:30:06.403Z,0.73
2023-01-17T07:32:33.455Z,0.20
2023-01-17T07:35:00.411Z,0.30
2023-01-17T07:37:27.443Z,0.30
2023-01-17T07:39:54.744Z,0.20
2023-01-17T07:42:24.083Z,0.20
2023-01-17T07:44:51.382Z,0.22
2023-01-17T07:47:18.358Z,0.73
2023-01-17T07:49:45.370Z,0.20
2023-01-17T07:52:12.445Z,0.20
2023-01-17T07:54:39.547Z,0.17
2023-01-17T07:57:11.214Z,0.25
2023-01-17T07:59:40.957Z,0.30
2023-01-17T08:02:17.859Z,0.28
2023-01-17T08:04:45.231Z,0.20
2023-01-17T08:07:13.926Z,0.30
2023-01-17T08:09:41.695Z,0.20
2023-01-17T08:12:09.203Z,0.20
2023-01-17T08:14:36.640Z,0.30
2023-01-17T08:17:16.127Z,0.30
2023-01-17T08:19:43.640Z,0.20
2023-01-17T08:22:12.273Z,0.45
2023-01-17T08:24:39.459Z,0.30
2023-01-17T08:27:06.555Z,0.30
2023-01-17T08:29:33.621Z,0.38
2023-01-17T08:32:00.679Z,0.32
2023-01-17T08:34:27.634Z,0.30
2023-01-17T08:36:55.242Z,0.30
2023-01-17T08:39:22.424Z,0.20
2023-01-17T08:41:49.435Z,0.38
2023-01-17T08:44:16.455Z,0.30
2023-01-17T08:46:44.334Z,0.30
2023-01-17T08:49:12.375Z,0.30
2023-01-17T08:51:39.831Z,0.30
2023-01-17T08:54:06.917Z,0.30
2023-01-17T08:56:34.210Z,0.25
2023-01-17T08:59:03.071Z,0.30
2023-01-17T09:01:30.391Z,0.50
2023-01-17T09:03:57.470Z,0.40
2023-01-17T09:06:24.451Z,0.30
2023-01-17T09:08:52.262Z,0.52
2023-01-17T09:11:19.333Z,0.70
2023-01-17T09:13:46.295Z,0.50
2023-01-17T09:16:13.317Z,0.50
2023-01-17T09:18:40.266Z,0.30
2023-01-17T09:21:13.012Z,0.30
2023-01-17T09:23:40.254Z,0.20
2023-01-17T09:26:07.622Z,0.30
2023-01-17T09:28:41.222Z,0.20
2023-01-17T09:31:08.780Z,0.20
2023-01-17T09:41:57.693Z,0.30
2023-01-17T09:44:51.750Z,0.45
2023-01-17T09:47:40.532Z,0.10
2023-01-17T09:53:05.787Z,0.20
2023-01-17T09:55:40.563Z,0.30
2023-01-17T09:58:17.022Z,0.10
2023-01-17T10:00:54.143Z,0.20
2023-01-17T10:03:40.323Z,0.10
2023-01-17T10:06:35.430Z,0.15
2023-01-17T10:09:34.938Z,0.25
2023-01-17T10:12:18.807Z,0.20
2023-01-17T10:15:15.280Z,0.20
2023-01-17T10:17:57.593Z,0.30
2023-01-17T10:20:34.150Z,0.20
2023-01-17T10:23:06.939Z,0.20
2023-01-17T10:25:36.737Z,0.20
2023-01-17T10:28:12.361Z,0.20
2023-01-17T10:30:48.989Z,0.20
2023-01-17T10:33:47.369Z,0.20
2023-01-17T10:36:20.926Z,0.20
2023-01-17T10:38:53.720Z,0.30
2023-01-17T10:41:45.081Z,0.30
2023-01-17T10:44:41.305Z,0.20
2023-01-17T10:47:11.037Z,0.20
2023-01-17T10:49:46.344Z,0.15
2023-01-17T10:52:25.628Z,0.20
2023-01-17T10:55:17.453Z,0.10
2023-01-17T10:57:46.457Z,0.20
2023-01-17T11:00:28.401Z,0.13
2023-01-17T11:02:56.011Z,0.17
2023-01-17T11:05:29.082Z,0.20
2023-01-17T11:08:05.147Z,0.20
2023-01-17T11:10:40.073Z,0.20
2023-01-17T11:13:35.469Z,0.10
2023-01-17T11:16:07.461Z,0.20
2023-01-17T11:18:39.859Z,0.10
2023-01-17T11:21:12.464Z,0.17
2023-01-17T11:23:42.865Z,0.20
2023-01-17T11:26:13.331Z,0.10
2023-01-17T11:28:41.534Z,0.20
2023-01-17T11:31:16.777Z,0.10
2023-01-17T11:33:54.027Z,0.10
2023-01-17T11:36:27.489Z,0.10
2023-01-17T11:39:07.085Z,0.20
2023-01-17T11:41:42.059Z,0.10
2023-01-17T11:44:29.262Z,0.22
2023-01-17T11:47:14.534Z,0.20
2023-01-17T11:49:45.454Z,0.10
2023-01-17T11:52:34.561Z,0.20
2023-01-17T11:55:01.652Z,0.10
2023-01-17T11:57:33.446Z,0.20
2023-01-17T12:00:19.730Z,0.10
2023-01-17T12:03:05.843Z,0.20
2023-01-17T12:06:08.612Z,0.20
2023-01-17T12:08:35.513Z,0.20
2023-01-17T12:11:13.920Z,0.10
2023-01-17T12:14:18.700Z,0.10
2023-01-17T12:17:11.641Z,0.30
2023-01-17T12:20:01.610Z,0.35
2023-01-17T12:22:40.700Z,0.10
2023-01-17T12:25:32.425Z,0.20
2023-01-17T12:27:59.962Z,0.10
2023-01-17T12:31:03.979Z,0.20
2023-01-17T12:34:00.077Z,0.25
2023-01-17T12:36:42.255Z,0.10
2023-01-17T12:39:12.063Z,0.20
2023-01-17T12:41:55.191Z,0.20
2023-01-17T12:44:51.828Z,0.15
2023-01-17T12:47:21.093Z,0.20
2023-01-17T12:50:14.527Z,0.20
2023-01-17T12:52:51.277Z,0.28
2023-01-17T12:55:34.838Z,0.25
2023-01-17T12:58:05.226Z,0.20
2023-01-17T13:00:37.949Z,0.30
2023-01-17T13:03:25.023Z,0.17
2023-01-17T13:05:53.343Z,0.20
2023-01-17T13:08:25.759Z,0.20
2023-01-17T13:10:55.826Z,0.20
2023-01-17T13:13:26.152Z,0.10
2023-01-17T13:16:18.651Z,0.13
2023-01-17T13:18:48.299Z,0.20
2023-01-17T13:21:33.154Z,0.20
2023-01-17T13:24:02.203Z,0.22
2023-01-17T13:26:55.370Z,0.10
2023-01-17T13:29:46.268Z,0.20
2023-01-17T13:32:28.458Z,0.20
2023-01-17T13:35:28.492Z,0.30
2023-01-17T13:38:30.192Z,0.30
2023-01-17T13:41:19.361Z,0.30
2023-01-17T13:44:06.377Z,0.20
2023-01-17T13:47:17.882Z,0.30
2023-01-17T13:49:56.417Z,0.30
2023-01-17T13:52:26.270Z,0.28
2023-01-17T13:54:57.095Z,0.10
2023-01-17T13:57:29.608Z,0.30
2023-01-17T13:59:58.766Z,0.35
2023-01-17T14:02:39.530Z,0.35
2023-01-17T14:05:15.232Z,0.20
2023-01-17T14:07:50.649Z,0.20
2023-01-17T14:10:36.470Z,0.30
2023-01-17T14:13:06.166Z,0.30
2023-01-17T14:15:47.167Z,0.20
2023-01-17T14:18:36.848Z,0.20
2023-01-17T14:21:11.862Z,0.30
2023-01-17T14:23:49.513Z,0.25
2023-01-17T14:26:41.270Z,0.30
2023-01-17T14:29:46.508Z,0.30
2023-01-17T14:32:19.520Z,0.30
2023-01-17T14:34:49.492Z,0.32
2023-01-17T14:37:21.280Z,0.20
2023-01-17T14:39:50.693Z,0.38
2023-01-17T14:42:21.283Z,0.20
2023-01-17T14:44:59.274Z,0.20
2023-01-17T14:47:30.306Z,0.28
2023-01-17T14:50:11.360Z,0.20
2023-01-17T14:52:38.372Z,0.28
2023-01-17T14:55:19.110Z,0.30
2023-01-17T14:57:56.909Z,0.47
2023-01-17T15:00:25.546Z,0.50
2023-01-17T15:02:53.802Z,0.32
2023-01-17T15:05:23.330Z,0.30
2023-01-17T15:07:53.168Z,0.45
2023-01-17T15:10:27.016Z,0.50
2023-01-17T15:12:56.563Z,0.40
2023-01-17T15:15:28.921Z,0.38
2023-01-17T15:18:29.590Z,0.30
2023-01-17T15:21:03.661Z,0.20
2023-01-17T15:23:38.377Z,0.30
2023-01-17T15:26:11.414Z,0.40
2023-01-17T15:28:38.545Z,0.40
2023-01-17T15:31:13.368Z,0.35
2023-01-17T15:33:46.690Z,0.40
2023-01-17T15:36:33.112Z,0.50
2023-01-17T15:39:06.851Z,0.30
2023-01-17T15:41:36.333Z,0.40
2023-01-17T15:44:04.458Z,0.40
2023-01-17T15:46:43.055Z,0.30
2023-01-17T15:49:18.174Z,0.60
2023-01-17T15:51:56.333Z,0.77
2023-01-17T15:54:28.970Z,0.40
2023-01-17T15:57:38.939Z,0.30
2023-01-17T16:00:20.822Z,0.38
2023-01-17T16:02:55.962Z,0.40
2023-01-17T16:05:27.802Z,0.55
2023-01-17T16:07:56.176Z,0.57
2023-01-17T16:10:28.906Z,0.30
2023-01-17T16:12:58.682Z,0.82
2023-01-17T16:15:27.106Z,0.40
2023-01-17T16:18:16.979Z,0.60
2023-01-17T16:20:59.064Z,0.40
2023-01-17T16:23:26.762Z,0.52
2023-01-17T16:25:54.074Z,0.55
2023-01-17T16:28:21.326Z,0.50
2023-01-17T16:30:49.023Z,0.55
2023-01-17T16:33:16.237Z,0.40
2023-01-17T16:35:43.289Z,0.28
2023-01-17T16:38:19.904Z,0.40
2023-01-17T16:40:47.961Z,0.80
2023-01-17T16:43:17.215Z,1.60
2023-01-17T16:45:47.514Z,0.50
2023-01-17T16:48:21.510Z,0.38
2023-01-17T16:50:52.396Z,1.50
2023-01-17T16:53:28.788Z,0.85
2023-01-17T16:55:59.264Z,0.57
2023-01-17T16:58:26.540Z,0.60
2023-01-17T17:00:55.480Z,0.57
2023-01-17T17:03:22.903Z,0.70
2023-01-17T17:05:58.205Z,0.40
2023-01-17T17:08:25.411Z,0.50
2023-01-17T17:10:52.508Z,0.73
2023-01-17T17:13:19.633Z,0.60
2023-01-17T17:15:46.934Z,0.60
2023-01-17T17:18:15.953Z,0.60
2023-01-17T17:20:43.595Z,0.45
2023-01-17T17:23:12.501Z,0.50
2023-01-17T17:25:39.623Z,0.43
2023-01-17T17:28:06.897Z,0.80
2023-01-17T17:30:34.639Z,0.52
2023-01-17T17:33:04.834Z,0.60
2023-01-17T17:35:34.993Z,0.65
2023-01-17T17:38:02.255Z,0.60
2023-01-17T17:40:29.231Z,0.60
2023-01-17T17:42:56.174Z,0.60
2023-01-17T17:45:23.225Z,0.70
2023-01-17T17:47:50.197Z,0.60
2023-01-17T17:50:17.193Z,0.60
2023-01-17T17:52:44.286Z,0.70
2023-01-17T17:55:11.613Z,0.75
2023-01-17T17:57:38.979Z,0.73
2023-01-17T18:00:06.631Z,0.60
2023-01-17T18:02:33.594Z,0.98
2023-01-17T18:05:01.203Z,0.65
2023-01-17T18:07:31.372Z,1.08
2023-01-17T18:09:58.365Z,0.70
2023-01-17T18:12:25.340Z,0.75
2023-01-17T18:14:52.295Z,0.60
2023-01-17T18:17:20.461Z,0.98
2023-01-17T18:19:47.388Z,0.60
2023-01-17T18:22:14.353Z,1.02
2023-01-17T18:24:41.566Z,0.60
2023-01-17T18:27:10.701Z,0.50
2023-01-17T18:29:37.668Z,0.60
2023-01-17T18:32:04.888Z,0.60
2023-01-17T18:34:33.813Z,0.50
2023-01-17T18:37:01.065Z,0.63
2023-01-17T18:39:30.154Z,0.70
2023-01-17T18:41:57.606Z,0.40
2023-01-17T18:44:24.728Z,0.73
2023-01-17T18:46:53.870Z,0.80
2023-01-17T18:49:21.027Z,0.60
2023-01-17T18:51:51.719Z,0.60
2023-01-17T18:54:20.029Z,0.63
2023-01-17T18:56:47.455Z,0.70
2023-01-17T18:59:18.572Z,0.80
2023-01-17T19:01:46.564Z,0.60
2023-01-17T19:04:15.942Z,0.50
2023-01-17T19:06:44.761Z,0.52
2023-01-17T19:09:13.551Z,0.52
2023-01-17T19:11:40.787Z,0.50
2023-01-17T19:14:08.328Z,0.50
2023-01-17T19:16:41.769Z,0.40
2023-01-17T19:19:13.041Z,0.50
2023-01-17T19:21:40.437Z,0.52
2023-01-17T19:24:09.590Z,0.60
2023-01-17T19:26:39.262Z,0.50
2023-01-17T19:29:07.068Z,0.30
2023-01-17T19:31:39.775Z,0.40
2023-01-17T19:34:11.115Z,0.30
2023-01-17T19:36:42.140Z,0.40
2023-01-17T19:39:09.747Z,0.30
2023-01-17T19:41:43.013Z,0.40
2023-01-17T19:44:12.110Z,0.50
2023-01-17T19:46:39.203Z,0.30
2023-01-17T19:49:07.766Z,0.30
2023-01-17T19:51:35.965Z,0.30
2023-01-17T19:54:04.237Z,0.30
2023-01-17T19:56:31.416Z,0.40
2023-01-17T19:59:01.667Z,0.35
2023-01-17T20:01:32.524Z,0.40
2023-01-17T20:04:01.507Z,0.60
2023-01-17T20:06:30.979Z,0.80
2023-01-17T20:08:58.255Z,1.50
2023-01-17T20:11:26.871Z,0.50
2023-01-17T20:13:56.354Z,0.65
2023-01-17T20:16:26.554Z,0.50
2023-01-17T20:19:00.333Z,0.60
2023-01-17T20:21:29.735Z,0.60
2023-01-17T20:23:58.936Z,0.60
2023-01-17T20:26:40.089Z,0.70
2023-01-17T20:29:11.097Z,0.47
2023-01-17T20:31:39.481Z,1.00
2023-01-17T20:34:10.009Z,1.08
2023-01-17T20:36:38.350Z,0.73
2023-01-17T20:39:06.943Z,0.80
2023-01-17T20:41:37.470Z,0.90
2023-01-17T20:44:06.784Z,0.80
2023-01-17T20:46:40.448Z,0.90
2023-01-17T20:49:13.491Z,1.58
2023-01-17T20:51:41.310Z,1.50
2023-01-17T20:54:13.835Z,1.10
2023-01-17T20:56:41.673Z,0.90
2023-01-17T20:59:12.977Z,1.45
2023-01-17T21:01:40.517Z,0.95
2023-01-17T21:04:10.761Z,1.00
2023-01-17T21:06:39.752Z,1.67
2023-01-17T21:09:08.816Z,1.08
2023-01-17T21:11:37.042Z,1.10
2023-01-17T21:14:05.959Z,1.23
2023-01-17T21:16:34.289Z,0.93
2023-01-17T21:19:02.374Z,0.77
2023-01-17T21:21:29.349Z,0.90
2023-01-17T21:23:58.362Z,1.00
2023-01-17T21:26:26.942Z,0.90
2023-01-17T21:28:54.786Z,0.73
2023-01-17T21:31:25.237Z,1.13
2023-01-17T21:34:00.983Z,1.80
2023-01-17T21:36:32.720Z,1.30
2023-01-17T21:39:04.852Z,1.50
2023-01-17T21:41:40.202Z,1.30
2023-01-17T21:44:12.189Z,1.23
2023-01-17T21:46:41.061Z,1.63
2023-01-17T21:49:12.795Z,1.13
2023-01-17T21:52:04.032Z,1.23
2023-01-17T21:54:50.229Z,1.33
2023-01-17T21:57:39.773Z,1.23
2023-01-17T22:00:09.764Z,1.13
2023-01-17T22:02:36.862Z,1.27
2023-01-17T22:05:03.982Z,1.75
2023-01-17T22:07:31.034Z,2.08
2023-01-17T22:09:58.024Z,1.48
2023-01-17T22:12:25.069Z,1.77
2023-01-17T22:14:52.771Z,1.70
2023-01-17T22:17:21.125Z,2.25
2023-01-17T22:19:48.155Z,1.40
2023-01-17T22:22:15.094Z,0.98
2023-01-17T22:24:42.043Z,1.30
2023-01-17T22:27:10.020Z,2.05
2023-01-17T22:29:38.017Z,1.40
2023-01-17T22:32:05.496Z,1.95
2023-01-17T22:34:32.409Z,1.95
2023-01-17T22:37:00.517Z,1.83
2023-01-17T22:39:27.554Z,2.63
2023-01-17T22:41:54.481Z,2.00
2023-01-17T22:44:21.435Z,2.33
2023-01-17T22:46:48.415Z,1.58
2023-01-17T22:49:16.901Z,1.67
2023-01-17T22:51:43.893Z,2.00
2023-01-17T22:54:11.570Z,2.40
2023-01-17T22:56:38.585Z,2.50
2023-01-17T22:59:11.403Z,1.77
2023-01-17T23:01:42.333Z,1.50
2023-01-17T23:04:17.268Z,1.50
2023-01-17T23:06:44.302Z,2.50
2023-01-17T23:09:13.841Z,2.10
2023-01-17T23:11:47.440Z,2.50
2023-01-17T23:14:24.081Z,1.58
2023-01-17T23:17:16.069Z,2.08
2023-01-17T23:19:51.079Z,2.75
2023-01-17T23:22:26.988Z,3.00
2023-01-17T23:25:20.502Z,3.72
2023-01-17T23:28:06.341Z,4.68
2023-01-17T23:30:40.785Z,3.38
2023-01-17T23:33:13.178Z,3.70
2023-01-17T23:35:43.465Z,2.47
2023-01-17T23:38:29.700Z,2.05
2023-01-17T23:41:24.542Z,2.33
2023-01-17T23:43:57.207Z,2.63
2023-01-17T23:46:25.755Z,2.55
2023-01-17T23:48:53.107Z,2.72
2023-01-17T23:51:20.084Z,2.80
2023-01-17T23:53:47.625Z,3.33
2023-01-17T23:56:20.408Z,2.08
2023-01-17T23:58:47.606Z,2.63
